KHHF

Hemphill County Airport

Canadian, Texas, USA
METAR KHHF 250055Z AUTO 17010G18KT 10SM CLR 30/19 A2993 RMK AO2 T03030187
Observed Flight Rules
May-25 @ 00:55 UTC (13 minutes ago) Visual Flight Rules
Wind Visibility Clouds
170° at 10 knots
 Gusting to 18 knots
10 miles
  • Clear skies
Temperatures Readings
Current 30°C / 86°F
Dewpoint 19°C / 66°F
Humidity 52%
Altimeter 29.93" Hg
Pressure 1014 hPa
Elevation 712
METAR KHHF 250055Z AUTO 17010G18KT 10SM CLR 30/19 A2993 RMK AO2 T03030187
Observed Flight Rules
May-25 @ 00:55 UTC
(13 minutes ago)
VFR
Wind Visibility
170° at 10 knots
 Gusting to 18 knots
10 miles
Clouds
  • Clear skies
Temperature Dewpoint
30°C / 86°F 19°C / 66°F
Humidity Altimeter Pressure
52% 29.93" Hg 1014 hPa